Sheridan, Missouri
Current Conditions -  °F | °C
As of 3:15 AM on Friday 19 Dec 2014 (Local Time) from KICL Reporting Station
Overcast Overcast  
Wind Chill: 24°   Ceiling: 800
Heat Index: 30°   Visibility: 8mi
Dew Point: 28°   Wind: 6mph
Humidity: 93%   Direction: 190°S
Pressure: 30.27"   Gusts: NA
Location:  40.52°N, 94.61°W
Report Text: KICL 190915Z AUTO 19005KT 8SM OVC008 M01/M02 A3027 RMK AO2
Loading
Personal Weather Stations






























Interactive Weather Map New forecast layout! Learn more

10-Day Weather Forecast

Advertisements
Track Severe Weather on mobile